sim
Sign-in with your pilot id or email,
or register
Callsign
Passwort

Schedule Details

Flight Number: RYR8807
Departure: Fuerteventura Airport (GCFV) at 10:45
Arrival: Milan Bergamo Il Caravaggio International Airport (LIME) at 14:50
Route: Ryanair Passenger Schedule. Enter filed route here before submitting Pirep.

Weather Information
Getting current METAR information for GCFV 212200Z AUTO 34012KT 9999 BKN026 19/14 Q1015
Getting current METAR information for LIME 212220Z 34003KT 300V020 9999 SCT110 13/05 Q1018 NOSIG

Schedule Frequency

Route Map